sensor_id;sensor_type;location;lat;lon;timestamp;P1;durP1;ratioP1;P2;durP2;ratioP2
54871;SDS011;43914;57.680;11.982;2023-02-28T00:01:14;7.80;;;3.00;;
54871;SDS011;43914;57.680;11.982;2023-02-28T00:03:40;9.70;;;3.00;;
54871;SDS011;43914;57.680;11.982;2023-02-28T00:06:06;9.00;;;3.10;;
54871;SDS011;43914;57.680;11.982;2023-02-28T00:08:33;8.50;;;2.50;;
54871;SDS011;43914;57.680;11.982;2023-02-28T00:11:06;7.80;;;2.90;;
54871;SDS011;43914;57.680;11.982;2023-02-28T00:16:07;9.20;;;3.00;;
54871;SDS011;43914;57.680;11.982;2023-02-28T00:18:36;8.00;;;2.90;;
54871;SDS011;43914;57.680;11.982;2023-02-28T00:21:02;8.40;;;3.20;;
54871;SDS011;43914;57.680;11.982;2023-02-28T00:23:28;7.90;;;3.10;;
54871;SDS011;43914;57.680;11.982;2023-02-28T00:25:53;9.10;;;3.40;;
54871;SDS011;43914;57.680;11.982;2023-02-28T00:28:19;8.00;;;2.80;;
54871;SDS011;43914;57.680;11.982;2023-02-28T00:30:45;10.10;;;3.10;;
54871;SDS011;43914;57.680;11.982;2023-02-28T00:33:11;9.30;;;3.10;;
54871;SDS011;43914;57.680;11.982;2023-02-28T00:35:37;7.50;;;2.70;;
54871;SDS011;43914;57.680;11.982;2023-02-28T00:38:02;9.20;;;3.00;;
54871;SDS011;43914;57.680;11.982;2023-02-28T00:40:28;9.60;;;3.30;;
54871;SDS011;43914;57.680;11.982;2023-02-28T00:42:54;7.80;;;3.00;;
54871;SDS011;43914;57.680;11.982;2023-02-28T00:45:20;8.50;;;2.50;;
54871;SDS011;43914;57.680;11.982;2023-02-28T00:47:45;7.40;;;2.50;;
54871;SDS011;43914;57.680;11.982;2023-02-28T00:50:15;9.10;;;2.70;;
54871;SDS011;43914;57.680;11.982;2023-02-28T00:52:42;7.60;;;2.30;;
54871;SDS011;43914;57.680;11.982;2023-02-28T00:55:08;8.20;;;2.30;;
54871;SDS011;43914;57.680;11.982;2023-02-28T00:57:34;13.40;;;3.30;;
54871;SDS011;43914;57.680;11.982;2023-02-28T01:00:00;8.30;;;2.90;;
54871;SDS011;43914;57.680;11.982;2023-02-28T01:02:27;8.00;;;2.90;;
54871;SDS011;43914;57.680;11.982;2023-02-28T01:04:52;8.00;;;3.10;;
54871;SDS011;43914;57.680;11.982;2023-02-28T01:07:18;9.00;;;3.40;;
54871;SDS011;43914;57.680;11.982;2023-02-28T01:09:44;7.80;;;2.90;;
54871;SDS011;43914;57.680;11.982;2023-02-28T01:12:09;9.70;;;2.90;;
54871;SDS011;43914;57.680;11.982;2023-02-28T01:14:35;8.00;;;2.60;;
54871;SDS011;43914;57.680;11.982;2023-02-28T01:17:01;8.00;;;2.30;;
54871;SDS011;43914;57.680;11.982;2023-02-28T01:19:26;6.20;;;2.30;;
54871;SDS011;43914;57.680;11.982;2023-02-28T01:21:52;7.00;;;2.60;;
54871;SDS011;43914;57.680;11.982;2023-02-28T01:24:18;10.40;;;3.10;;
54871;SDS011;43914;57.680;11.982;2023-02-28T01:26:44;9.30;;;2.50;;
54871;SDS011;43914;57.680;11.982;2023-02-28T01:29:09;8.20;;;2.70;;
54871;SDS011;43914;57.680;11.982;2023-02-28T01:31:35;8.60;;;2.20;;
54871;SDS011;43914;57.680;11.982;2023-02-28T01:34:00;7.90;;;2.40;;
54871;SDS011;43914;57.680;11.982;2023-02-28T01:36:27;6.70;;;2.00;;
54871;SDS011;43914;57.680;11.982;2023-02-28T01:38:52;8.70;;;2.20;;
54871;SDS011;43914;57.680;11.982;2023-02-28T01:41:19;6.20;;;2.00;;
54871;SDS011;43914;57.680;11.982;2023-02-28T01:46:13;7.00;;;2.20;;
54871;SDS011;43914;57.680;11.982;2023-02-28T01:48:46;7.30;;;2.30;;
54871;SDS011;43914;57.680;11.982;2023-02-28T01:51:24;6.70;;;2.10;;
54871;SDS011;43914;57.680;11.982;2023-02-28T01:54:01;6.90;;;2.20;;
54871;SDS011;43914;57.680;11.982;2023-02-28T01:56:31;6.50;;;2.40;;
54871;SDS011;43914;57.680;11.982;2023-02-28T01:59:01;7.70;;;2.10;;
54871;SDS011;43914;57.680;11.982;2023-02-28T02:03:56;6.60;;;2.10;;
54871;SDS011;43914;57.680;11.982;2023-02-28T02:06:34;7.90;;;2.20;;
54871;SDS011;43914;57.680;11.982;2023-02-28T02:09:07;8.70;;;2.20;;
54871;SDS011;43914;57.680;11.982;2023-02-28T02:11:33;6.20;;;2.00;;
54871;SDS011;43914;57.680;11.982;2023-02-28T02:17:05;7.00;;;1.90;;
54871;SDS011;43914;57.680;11.982;2023-02-28T02:27:44;7.80;;;1.80;;
54871;SDS011;43914;57.680;11.982;2023-02-28T02:30:43;5.50;;;1.80;;
54871;SDS011;43914;57.680;11.982;2023-02-28T02:34:22;7.00;;;1.60;;
54871;SDS011;43914;57.680;11.982;2023-02-28T02:36:46;5.10;;;1.70;;
54871;SDS011;43914;57.680;11.982;2023-02-28T02:42:28;4.80;;;1.60;;
54871;SDS011;43914;57.680;11.982;2023-02-28T02:45:03;6.10;;;1.60;;
54871;SDS011;43914;57.680;11.982;2023-02-28T02:47:37;4.90;;;1.80;;
54871;SDS011;43914;57.680;11.982;2023-02-28T02:50:05;5.70;;;1.50;;
54871;SDS011;43914;57.680;11.982;2023-02-28T02:52:42;5.40;;;1.50;;
54871;SDS011;43914;57.680;11.982;2023-02-28T02:55:11;5.30;;;1.50;;
54871;SDS011;43914;57.680;11.982;2023-02-28T02:57:49;5.30;;;1.50;;
54871;SDS011;43914;57.680;11.982;2023-02-28T03:00:20;5.00;;;1.50;;
54871;SDS011;43914;57.680;11.982;2023-02-28T03:02:51;7.40;;;1.80;;
54871;SDS011;43914;57.680;11.982;2023-02-28T03:05:21;4.90;;;1.60;;
54871;SDS011;43914;57.680;11.982;2023-02-28T03:07:50;6.30;;;1.50;;
54871;SDS011;43914;57.680;11.982;2023-02-28T03:13:42;7.00;;;2.10;;
54871;SDS011;43914;57.680;11.982;2023-02-28T03:16:29;6.70;;;2.00;;
54871;SDS011;43914;57.680;11.982;2023-02-28T03:24:28;6.40;;;2.10;;
54871;SDS011;43914;57.680;11.982;2023-02-28T03:27:17;5.90;;;1.90;;
54871;SDS011;43914;57.680;11.982;2023-02-28T03:30:27;8.60;;;1.90;;
54871;SDS011;43914;57.680;11.982;2023-02-28T03:33:03;6.30;;;2.10;;
54871;SDS011;43914;57.680;11.982;2023-02-28T03:35:43;6.90;;;2.10;;
54871;SDS011;43914;57.680;11.982;2023-02-28T03:40:46;7.30;;;2.60;;
54871;SDS011;43914;57.680;11.982;2023-02-28T03:43:18;7.10;;;2.50;;
54871;SDS011;43914;57.680;11.982;2023-02-28T03:45:48;7.40;;;2.50;;
54871;SDS011;43914;57.680;11.982;2023-02-28T03:48:20;6.10;;;1.90;;
54871;SDS011;43914;57.680;11.982;2023-02-28T03:50:50;7.30;;;2.10;;
54871;SDS011;43914;57.680;11.982;2023-02-28T03:53:21;5.30;;;1.40;;
54871;SDS011;43914;57.680;11.982;2023-02-28T03:55:56;6.00;;;1.50;;
54871;SDS011;43914;57.680;11.982;2023-02-28T04:01:20;5.30;;;1.40;;
54871;SDS011;43914;57.680;11.982;2023-02-28T04:03:53;5.20;;;1.80;;
54871;SDS011;43914;57.680;11.982;2023-02-28T04:06:20;6.80;;;2.00;;
54871;SDS011;43914;57.680;11.982;2023-02-28T04:08:47;7.00;;;2.00;;
54871;SDS011;43914;57.680;11.982;2023-02-28T04:13:45;6.40;;;2.00;;
54871;SDS011;43914;57.680;11.982;2023-02-28T04:16:10;7.30;;;2.30;;
54871;SDS011;43914;57.680;11.982;2023-02-28T04:18:39;6.60;;;2.70;;
54871;SDS011;43914;57.680;11.982;2023-02-28T04:21:05;8.30;;;2.90;;
54871;SDS011;43914;57.680;11.982;2023-02-28T04:23:32;7.00;;;2.40;;
54871;SDS011;43914;57.680;11.982;2023-02-28T04:25:58;8.00;;;2.70;;
54871;SDS011;43914;57.680;11.982;2023-02-28T04:28:24;7.20;;;2.50;;
54871;SDS011;43914;57.680;11.982;2023-02-28T04:31:00;7.70;;;2.60;;
54871;SDS011;43914;57.680;11.982;2023-02-28T04:33:29;7.90;;;2.80;;
54871;SDS011;43914;57.680;11.982;2023-02-28T04:36:02;8.30;;;3.10;;
54871;SDS011;43914;57.680;11.982;2023-02-28T04:38:48;9.50;;;2.80;;
54871;SDS011;43914;57.680;11.982;2023-02-28T04:41:15;10.80;;;3.10;;
54871;SDS011;43914;57.680;11.982;2023-02-28T04:43:41;10.00;;;3.00;;
54871;SDS011;43914;57.680;11.982;2023-02-28T04:46:07;10.70;;;3.40;;
54871;SDS011;43914;57.680;11.982;2023-02-28T04:48:34;7.80;;;2.80;;
54871;SDS011;43914;57.680;11.982;2023-02-28T04:51:10;10.00;;;3.20;;
54871;SDS011;43914;57.680;11.982;2023-02-28T04:53:39;7.70;;;2.90;;
54871;SDS011;43914;57.680;11.982;2023-02-28T04:56:06;7.60;;;2.50;;
54871;SDS011;43914;57.680;11.982;2023-02-28T04:58:33;8.10;;;2.40;;
54871;SDS011;43914;57.680;11.982;2023-02-28T05:03:43;6.30;;;2.30;;
54871;SDS011;43914;57.680;11.982;2023-02-28T05:06:10;7.70;;;2.70;;
54871;SDS011;43914;57.680;11.982;2023-02-28T05:08:37;8.70;;;2.70;;
54871;SDS011;43914;57.680;11.982;2023-02-28T05:11:05;9.90;;;3.00;;
54871;SDS011;43914;57.680;11.982;2023-02-28T05:13:36;7.70;;;2.60;;
54871;SDS011;43914;57.680;11.982;2023-02-28T05:16:01;7.90;;;2.80;;
54871;SDS011;43914;57.680;11.982;2023-02-28T05:18:27;7.60;;;2.80;;
54871;SDS011;43914;57.680;11.982;2023-02-28T05:20:52;8.20;;;2.90;;
54871;SDS011;43914;57.680;11.982;2023-02-28T05:23:17;7.50;;;2.60;;
54871;SDS011;43914;57.680;11.982;2023-02-28T05:25:46;7.90;;;3.20;;
54871;SDS011;43914;57.680;11.982;2023-02-28T05:28:11;8.10;;;3.00;;
54871;SDS011;43914;57.680;11.982;2023-02-28T05:30:37;8.10;;;2.90;;
54871;SDS011;43914;57.680;11.982;2023-02-28T05:33:02;8.60;;;2.60;;
54871;SDS011;43914;57.680;11.982;2023-02-28T05:35:28;11.00;;;2.90;;
54871;SDS011;43914;57.680;11.982;2023-02-28T05:37:53;10.70;;;2.90;;
54871;SDS011;43914;57.680;11.982;2023-02-28T05:40:19;7.10;;;2.30;;
54871;SDS011;43914;57.680;11.982;2023-02-28T05:42:45;8.60;;;3.10;;
54871;SDS011;43914;57.680;11.982;2023-02-28T05:45:11;7.90;;;2.80;;
54871;SDS011;43914;57.680;11.982;2023-02-28T05:47:37;9.00;;;2.90;;
54871;SDS011;43914;57.680;11.982;2023-02-28T05:50:04;10.50;;;3.00;;
54871;SDS011;43914;57.680;11.982;2023-02-28T05:52:30;7.30;;;2.80;;
54871;SDS011;43914;57.680;11.982;2023-02-28T05:54:55;7.20;;;2.70;;
54871;SDS011;43914;57.680;11.982;2023-02-28T05:57:21;8.30;;;3.00;;
54871;SDS011;43914;57.680;11.982;2023-02-28T05:59:48;8.20;;;2.90;;
54871;SDS011;43914;57.680;11.982;2023-02-28T06:02:14;7.80;;;2.70;;
54871;SDS011;43914;57.680;11.982;2023-02-28T06:04:42;7.00;;;2.20;;
54871;SDS011;43914;57.680;11.982;2023-02-28T06:07:08;7.30;;;2.60;;
54871;SDS011;43914;57.680;11.982;2023-02-28T06:09:34;7.30;;;2.40;;
54871;SDS011;43914;57.680;11.982;2023-02-28T06:12:00;7.00;;;2.50;;
54871;SDS011;43914;57.680;11.982;2023-02-28T06:14:28;7.90;;;2.20;;
54871;SDS011;43914;57.680;11.982;2023-02-28T06:16:56;6.60;;;2.30;;
54871;SDS011;43914;57.680;11.982;2023-02-28T06:19:22;5.80;;;2.20;;
54871;SDS011;43914;57.680;11.982;2023-02-28T06:21:50;7.20;;;2.30;;
54871;SDS011;43914;57.680;11.982;2023-02-28T06:24:21;6.30;;;1.90;;
54871;SDS011;43914;57.680;11.982;2023-02-28T06:26:48;7.30;;;2.10;;
54871;SDS011;43914;57.680;11.982;2023-02-28T06:29:14;6.80;;;2.10;;
54871;SDS011;43914;57.680;11.982;2023-02-28T06:31:44;7.40;;;2.50;;
54871;SDS011;43914;57.680;11.982;2023-02-28T06:34:10;7.30;;;2.20;;
54871;SDS011;43914;57.680;11.982;2023-02-28T06:36:37;8.40;;;2.20;;
54871;SDS011;43914;57.680;11.982;2023-02-28T06:39:04;8.00;;;2.50;;
54871;SDS011;43914;57.680;11.982;2023-02-28T06:41:31;11.40;;;2.50;;
54871;SDS011;43914;57.680;11.982;2023-02-28T06:43:59;6.50;;;2.40;;
54871;SDS011;43914;57.680;11.982;2023-02-28T06:46:24;6.40;;;2.10;;
54871;SDS011;43914;57.680;11.982;2023-02-28T06:48:49;6.60;;;2.30;;
54871;SDS011;43914;57.680;11.982;2023-02-28T06:51:16;8.40;;;2.40;;
54871;SDS011;43914;57.680;11.982;2023-02-28T06:53:45;7.90;;;2.70;;
54871;SDS011;43914;57.680;11.982;2023-02-28T06:56:12;7.30;;;2.60;;
54871;SDS011;43914;57.680;11.982;2023-02-28T06:58:39;6.90;;;2.90;;
54871;SDS011;43914;57.680;11.982;2023-02-28T07:01:06;10.40;;;3.00;;
54871;SDS011;43914;57.680;11.982;2023-02-28T07:03:34;11.70;;;3.20;;
54871;SDS011;43914;57.680;11.982;2023-02-28T07:06:00;11.50;;;2.40;;
54871;SDS011;43914;57.680;11.982;2023-02-28T07:08:26;9.30;;;3.10;;
54871;SDS011;43914;57.680;11.982;2023-02-28T07:10:55;11.20;;;2.70;;
54871;SDS011;43914;57.680;11.982;2023-02-28T07:13:22;8.50;;;2.40;;
54871;SDS011;43914;57.680;11.982;2023-02-28T07:18:21;7.80;;;2.50;;
54871;SDS011;43914;57.680;11.982;2023-02-28T07:20:47;9.40;;;3.10;;
54871;SDS011;43914;57.680;11.982;2023-02-28T07:23:12;9.60;;;3.50;;
54871;SDS011;43914;57.680;11.982;2023-02-28T07:25:38;7.50;;;3.40;;
54871;SDS011;43914;57.680;11.982;2023-02-28T07:28:04;8.70;;;3.10;;
54871;SDS011;43914;57.680;11.982;2023-02-28T07:30:30;8.60;;;3.20;;
54871;SDS011;43914;57.680;11.982;2023-02-28T07:32:55;9.80;;;4.00;;
54871;SDS011;43914;57.680;11.982;2023-02-28T07:35:21;9.80;;;4.00;;
54871;SDS011;43914;57.680;11.982;2023-02-28T07:37:47;11.40;;;4.10;;
54871;SDS011;43914;57.680;11.982;2023-02-28T07:40:13;11.60;;;4.40;;
54871;SDS011;43914;57.680;11.982;2023-02-28T07:42:42;12.00;;;4.60;;
54871;SDS011;43914;57.680;11.982;2023-02-28T07:45:08;12.80;;;4.20;;
54871;SDS011;43914;57.680;11.982;2023-02-28T07:47:37;13.20;;;4.50;;
54871;SDS011;43914;57.680;11.982;2023-02-28T07:50:03;12.90;;;4.70;;
54871;SDS011;43914;57.680;11.982;2023-02-28T07:52:35;12.10;;;4.30;;
54871;SDS011;43914;57.680;11.982;2023-02-28T07:55:01;12.30;;;4.20;;
54871;SDS011;43914;57.680;11.982;2023-02-28T07:57:27;14.70;;;4.70;;
54871;SDS011;43914;57.680;11.982;2023-02-28T07:59:52;11.90;;;4.20;;
54871;SDS011;43914;57.680;11.982;2023-02-28T08:02:18;15.70;;;4.80;;
54871;SDS011;43914;57.680;11.982;2023-02-28T08:04:44;12.40;;;4.90;;
54871;SDS011;43914;57.680;11.982;2023-02-28T08:07:12;16.20;;;5.10;;
54871;SDS011;43914;57.680;11.982;2023-02-28T08:09:38;15.80;;;5.60;;
54871;SDS011;43914;57.680;11.982;2023-02-28T08:12:04;13.40;;;4.70;;
54871;SDS011;43914;57.680;11.982;2023-02-28T08:14:32;14.00;;;4.80;;
54871;SDS011;43914;57.680;11.982;2023-02-28T08:16:58;20.50;;;6.00;;
54871;SDS011;43914;57.680;11.982;2023-02-28T08:19:23;16.60;;;6.20;;
54871;SDS011;43914;57.680;11.982;2023-02-28T08:21:49;13.60;;;4.50;;
54871;SDS011;43914;57.680;11.982;2023-02-28T08:24:14;10.70;;;4.10;;
54871;SDS011;43914;57.680;11.982;2023-02-28T08:26:39;11.10;;;4.10;;
54871;SDS011;43914;57.680;11.982;2023-02-28T08:29:05;10.80;;;3.80;;
54871;SDS011;43914;57.680;11.982;2023-02-28T08:31:30;13.50;;;4.70;;
54871;SDS011;43914;57.680;11.982;2023-02-28T08:33:56;12.40;;;4.50;;
54871;SDS011;43914;57.680;11.982;2023-02-28T08:36:24;17.70;;;4.30;;
54871;SDS011;43914;57.680;11.982;2023-02-28T08:38:50;13.10;;;4.10;;
54871;SDS011;43914;57.680;11.982;2023-02-28T08:41:16;11.80;;;4.20;;
54871;SDS011;43914;57.680;11.982;2023-02-28T08:43:41;12.00;;;4.40;;
54871;SDS011;43914;57.680;11.982;2023-02-28T08:46:07;15.20;;;5.00;;
54871;SDS011;43914;57.680;11.982;2023-02-28T08:48:39;13.30;;;4.80;;
54871;SDS011;43914;57.680;11.982;2023-02-28T08:51:06;13.70;;;5.00;;
54871;SDS011;43914;57.680;11.982;2023-02-28T08:53:37;14.30;;;5.80;;
54871;SDS011;43914;57.680;11.982;2023-02-28T08:56:06;15.50;;;5.70;;
54871;SDS011;43914;57.680;11.982;2023-02-28T08:58:33;16.70;;;6.00;;
54871;SDS011;43914;57.680;11.982;2023-02-28T09:00:59;15.20;;;5.50;;
54871;SDS011;43914;57.680;11.982;2023-02-28T09:03:26;17.70;;;6.30;;
54871;SDS011;43914;57.680;11.982;2023-02-28T09:05:55;15.20;;;5.30;;
54871;SDS011;43914;57.680;11.982;2023-02-28T09:08:22;13.40;;;5.40;;
54871;SDS011;43914;57.680;11.982;2023-02-28T09:10:48;13.30;;;5.10;;
54871;SDS011;43914;57.680;11.982;2023-02-28T09:13:14;14.20;;;5.20;;
54871;SDS011;43914;57.680;11.982;2023-02-28T09:15:39;17.90;;;6.20;;
54871;SDS011;43914;57.680;11.982;2023-02-28T09:18:05;14.80;;;5.70;;
54871;SDS011;43914;57.680;11.982;2023-02-28T09:20:30;18.30;;;6.00;;
54871;SDS011;43914;57.680;11.982;2023-02-28T09:22:56;18.60;;;5.60;;
54871;SDS011;43914;57.680;11.982;2023-02-28T09:25:21;15.70;;;5.60;;
54871;SDS011;43914;57.680;11.982;2023-02-28T09:27:47;18.70;;;6.30;;
54871;SDS011;43914;57.680;11.982;2023-02-28T09:30:12;15.80;;;6.00;;
54871;SDS011;43914;57.680;11.982;2023-02-28T09:32:38;16.90;;;5.60;;
54871;SDS011;43914;57.680;11.982;2023-02-28T09:35:04;12.10;;;5.00;;
54871;SDS011;43914;57.680;11.982;2023-02-28T09:37:30;14.50;;;5.90;;
54871;SDS011;43914;57.680;11.982;2023-02-28T09:39:56;14.10;;;5.10;;
54871;SDS011;43914;57.680;11.982;2023-02-28T09:42:25;14.90;;;5.30;;
54871;SDS011;43914;57.680;11.982;2023-02-28T09:44:59;21.90;;;6.40;;
54871;SDS011;43914;57.680;11.982;2023-02-28T09:47:31;16.40;;;6.00;;
54871;SDS011;43914;57.680;11.982;2023-02-28T09:50:45;17.00;;;6.20;;
54871;SDS011;43914;57.680;11.982;2023-02-28T09:53:14;15.30;;;5.90;;
54871;SDS011;43914;57.680;11.982;2023-02-28T09:55:57;15.10;;;6.20;;
54871;SDS011;43914;57.680;11.982;2023-02-28T10:04:12;16.00;;;6.00;;
54871;SDS011;43914;57.680;11.982;2023-02-28T10:06:50;17.90;;;6.50;;
54871;SDS011;43914;57.680;11.982;2023-02-28T10:09:18;15.30;;;6.00;;
54871;SDS011;43914;57.680;11.982;2023-02-28T10:11:48;13.10;;;5.60;;
54871;SDS011;43914;57.680;11.982;2023-02-28T10:14:21;13.10;;;5.20;;
54871;SDS011;43914;57.680;11.982;2023-02-28T10:19:44;14.60;;;5.30;;
54871;SDS011;43914;57.680;11.982;2023-02-28T10:22:19;13.70;;;4.80;;
54871;SDS011;43914;57.680;11.982;2023-02-28T10:24:53;14.80;;;5.10;;
54871;SDS011;43914;57.680;11.982;2023-02-28T10:27:25;13.60;;;5.50;;
54871;SDS011;43914;57.680;11.982;2023-02-28T10:29:57;13.40;;;5.30;;
54871;SDS011;43914;57.680;11.982;2023-02-28T10:34:55;12.00;;;4.80;;
54871;SDS011;43914;57.680;11.982;2023-02-28T10:37:24;12.00;;;5.10;;
54871;SDS011;43914;57.680;11.982;2023-02-28T10:39:51;10.80;;;5.10;;
54871;SDS011;43914;57.680;11.982;2023-02-28T10:42:27;11.50;;;4.40;;
54871;SDS011;43914;57.680;11.982;2023-02-28T10:45:13;11.60;;;5.10;;
54871;SDS011;43914;57.680;11.982;2023-02-28T10:47:55;13.20;;;5.20;;
54871;SDS011;43914;57.680;11.982;2023-02-28T10:56:03;13.20;;;5.40;;
54871;SDS011;43914;57.680;11.982;2023-02-28T11:00:58;10.40;;;4.60;;
54871;SDS011;43914;57.680;11.982;2023-02-28T11:03:28;12.90;;;5.30;;
54871;SDS011;43914;57.680;11.982;2023-02-28T11:05:56;10.90;;;4.10;;
54871;SDS011;43914;57.680;11.982;2023-02-28T11:08:22;10.70;;;4.20;;
54871;SDS011;43914;57.680;11.982;2023-02-28T11:10:58;10.10;;;4.30;;
54871;SDS011;43914;57.680;11.982;2023-02-28T11:13:35;11.10;;;4.70;;
54871;SDS011;43914;57.680;11.982;2023-02-28T11:16:05;11.60;;;4.80;;
54871;SDS011;43914;57.680;11.982;2023-02-28T11:18:44;9.40;;;4.20;;
54871;SDS011;43914;57.680;11.982;2023-02-28T11:21:25;10.90;;;4.30;;
54871;SDS011;43914;57.680;11.982;2023-02-28T11:24:00;10.60;;;4.10;;
54871;SDS011;43914;57.680;11.982;2023-02-28T11:26:38;10.10;;;4.30;;
54871;SDS011;43914;57.680;11.982;2023-02-28T11:32:20;9.60;;;3.80;;
54871;SDS011;43914;57.680;11.982;2023-02-28T11:34:46;10.60;;;3.90;;
54871;SDS011;43914;57.680;11.982;2023-02-28T11:37:25;9.70;;;4.00;;
54871;SDS011;43914;57.680;11.982;2023-02-28T11:39:53;11.70;;;3.60;;
54871;SDS011;43914;57.680;11.982;2023-02-28T11:48:42;11.30;;;4.50;;
54871;SDS011;43914;57.680;11.982;2023-02-28T11:57:36;11.40;;;3.60;;
54871;SDS011;43914;57.680;11.982;2023-02-28T12:05:40;9.80;;;4.00;;
54871;SDS011;43914;57.680;11.982;2023-02-28T12:13:48;10.50;;;4.40;;
54871;SDS011;43914;57.680;11.982;2023-02-28T12:16:27;8.90;;;3.80;;
54871;SDS011;43914;57.680;11.982;2023-02-28T12:27:16;12.80;;;4.70;;
54871;SDS011;43914;57.680;11.982;2023-02-28T12:29:50;11.50;;;5.20;;
54871;SDS011;43914;57.680;11.982;2023-02-28T12:32:37;10.70;;;4.20;;
54871;SDS011;43914;57.680;11.982;2023-02-28T12:35:16;16.30;;;4.70;;
54871;SDS011;43914;57.680;11.982;2023-02-28T12:43:52;11.90;;;3.70;;
54871;SDS011;43914;57.680;11.982;2023-02-28T12:46:27;14.50;;;3.90;;
54871;SDS011;43914;57.680;11.982;2023-02-28T12:48:58;12.60;;;3.80;;
54871;SDS011;43914;57.680;11.982;2023-02-28T12:51:30;10.80;;;3.90;;
54871;SDS011;43914;57.680;11.982;2023-02-28T12:56:43;14.90;;;4.40;;
54871;SDS011;43914;57.680;11.982;2023-02-28T12:59:12;10.20;;;3.70;;
54871;SDS011;43914;57.680;11.982;2023-02-28T13:07:34;13.10;;;4.20;;
54871;SDS011;43914;57.680;11.982;2023-02-28T13:10:11;12.80;;;3.60;;
54871;SDS011;43914;57.680;11.982;2023-02-28T13:12:46;11.70;;;3.80;;
54871;SDS011;43914;57.680;11.982;2023-02-28T13:15:24;9.10;;;3.60;;
54871;SDS011;43914;57.680;11.982;2023-02-28T13:17:57;10.70;;;4.10;;
54871;SDS011;43914;57.680;11.982;2023-02-28T13:20:25;12.20;;;3.40;;
54871;SDS011;43914;57.680;11.982;2023-02-28T13:23:01;12.30;;;3.70;;
54871;SDS011;43914;57.680;11.982;2023-02-28T13:27:59;13.00;;;3.80;;
54871;SDS011;43914;57.680;11.982;2023-02-28T13:33:24;9.40;;;3.40;;
54871;SDS011;43914;57.680;11.982;2023-02-28T13:36:37;9.90;;;3.30;;
54871;SDS011;43914;57.680;11.982;2023-02-28T13:38:47;10.20;;;3.30;;
54871;SDS011;43914;57.680;11.982;2023-02-28T13:47:23;10.10;;;3.10;;
54871;SDS011;43914;57.680;11.982;2023-02-28T13:54:24;7.80;;;3.10;;
54871;SDS011;43914;57.680;11.982;2023-02-28T14:02:23;9.80;;;3.00;;
54871;SDS011;43914;57.680;11.982;2023-02-28T14:07:57;10.60;;;2.80;;
54871;SDS011;43914;57.680;11.982;2023-02-28T14:10:33;9.40;;;3.00;;
54871;SDS011;43914;57.680;11.982;2023-02-28T14:16:02;10.30;;;2.50;;
54871;SDS011;43914;57.680;11.982;2023-02-28T14:18:32;10.00;;;2.70;;
54871;SDS011;43914;57.680;11.982;2023-02-28T14:26:29;12.00;;;2.90;;
54871;SDS011;43914;57.680;11.982;2023-02-28T14:34:54;9.10;;;2.60;;
54871;SDS011;43914;57.680;11.982;2023-02-28T14:37:43;8.50;;;2.70;;
54871;SDS011;43914;57.680;11.982;2023-02-28T14:40:16;9.30;;;2.50;;
54871;SDS011;43914;57.680;11.982;2023-02-28T14:45:53;9.60;;;3.10;;
54871;SDS011;43914;57.680;11.982;2023-02-28T14:50:54;8.80;;;2.90;;
54871;SDS011;43914;57.680;11.982;2023-02-28T14:53:26;9.00;;;2.80;;
54871;SDS011;43914;57.680;11.982;2023-02-28T14:55:54;7.30;;;2.60;;
54871;SDS011;43914;57.680;11.982;2023-02-28T14:58:38;8.70;;;2.70;;
54871;SDS011;43914;57.680;11.982;2023-02-28T15:01:03;9.10;;;2.40;;
54871;SDS011;43914;57.680;11.982;2023-02-28T15:03:34;8.30;;;2.50;;
54871;SDS011;43914;57.680;11.982;2023-02-28T15:06:16;13.50;;;2.60;;
54871;SDS011;43914;57.680;11.982;2023-02-28T15:08:43;8.30;;;2.40;;
54871;SDS011;43914;57.680;11.982;2023-02-28T15:11:13;10.00;;;2.50;;
54871;SDS011;43914;57.680;11.982;2023-02-28T15:13:47;10.60;;;2.70;;
54871;SDS011;43914;57.680;11.982;2023-02-28T15:21:26;12.10;;;2.70;;
54871;SDS011;43914;57.680;11.982;2023-02-28T15:23:57;7.00;;;2.50;;
54871;SDS011;43914;57.680;11.982;2023-02-28T15:26:36;10.00;;;2.30;;
54871;SDS011;43914;57.680;11.982;2023-02-28T15:29:11;16.60;;;2.40;;
54871;SDS011;43914;57.680;11.982;2023-02-28T15:31:45;9.70;;;2.50;;
54871;SDS011;43914;57.680;11.982;2023-02-28T15:34:26;8.90;;;2.80;;
54871;SDS011;43914;57.680;11.982;2023-02-28T15:36:58;6.70;;;2.30;;
54871;SDS011;43914;57.680;11.982;2023-02-28T15:39:25;6.80;;;2.10;;
54871;SDS011;43914;57.680;11.982;2023-02-28T15:41:52;8.20;;;2.00;;
54871;SDS011;43914;57.680;11.982;2023-02-28T15:44:34;8.60;;;2.30;;
54871;SDS011;43914;57.680;11.982;2023-02-28T15:47:07;7.40;;;2.10;;
54871;SDS011;43914;57.680;11.982;2023-02-28T15:49:56;12.30;;;2.40;;
54871;SDS011;43914;57.680;11.982;2023-02-28T15:52:28;10.60;;;2.10;;
54871;SDS011;43914;57.680;11.982;2023-02-28T15:57:50;10.40;;;2.20;;
54871;SDS011;43914;57.680;11.982;2023-02-28T16:00:19;8.00;;;2.00;;
54871;SDS011;43914;57.680;11.982;2023-02-28T16:02:49;10.80;;;2.20;;
54871;SDS011;43914;57.680;11.982;2023-02-28T16:05:23;16.30;;;3.30;;
54871;SDS011;43914;57.680;11.982;2023-02-28T16:07:53;11.30;;;2.30;;
54871;SDS011;43914;57.680;11.982;2023-02-28T16:10:20;8.40;;;2.20;;
54871;SDS011;43914;57.680;11.982;2023-02-28T16:12:50;11.40;;;2.20;;
54871;SDS011;43914;57.680;11.982;2023-02-28T16:17:51;6.20;;;2.20;;
54871;SDS011;43914;57.680;11.982;2023-02-28T16:20:27;9.20;;;2.20;;
54871;SDS011;43914;57.680;11.982;2023-02-28T16:22:54;9.80;;;2.10;;
54871;SDS011;43914;57.680;11.982;2023-02-28T16:25:26;7.70;;;2.10;;
54871;SDS011;43914;57.680;11.982;2023-02-28T16:27:59;9.20;;;2.00;;
54871;SDS011;43914;57.680;11.982;2023-02-28T16:30:26;10.30;;;2.10;;
54871;SDS011;43914;57.680;11.982;2023-02-28T16:32:54;7.10;;;2.00;;
54871;SDS011;43914;57.680;11.982;2023-02-28T16:35:22;13.50;;;2.10;;
54871;SDS011;43914;57.680;11.982;2023-02-28T16:37:50;6.10;;;1.90;;
54871;SDS011;43914;57.680;11.982;2023-02-28T16:40:21;6.60;;;1.80;;
54871;SDS011;43914;57.680;11.982;2023-02-28T16:42:50;5.70;;;1.80;;
54871;SDS011;43914;57.680;11.982;2023-02-28T16:45:23;8.00;;;2.20;;
54871;SDS011;43914;57.680;11.982;2023-02-28T16:47:50;7.00;;;2.10;;
54871;SDS011;43914;57.680;11.982;2023-02-28T16:50:23;6.70;;;2.10;;
54871;SDS011;43914;57.680;11.982;2023-02-28T16:52:54;13.20;;;2.10;;
54871;SDS011;43914;57.680;11.982;2023-02-28T16:55:20;10.00;;;2.00;;
54871;SDS011;43914;57.680;11.982;2023-02-28T16:57:51;8.40;;;2.00;;
54871;SDS011;43914;57.680;11.982;2023-02-28T17:00:24;10.00;;;1.90;;
54871;SDS011;43914;57.680;11.982;2023-02-28T17:02:52;8.80;;;2.00;;
54871;SDS011;43914;57.680;11.982;2023-02-28T17:05:18;9.00;;;2.20;;
54871;SDS011;43914;57.680;11.982;2023-02-28T17:07:45;6.20;;;1.90;;
54871;SDS011;43914;57.680;11.982;2023-02-28T17:10:13;9.70;;;2.30;;
54871;SDS011;43914;57.680;11.982;2023-02-28T17:12:41;7.70;;;2.60;;
54871;SDS011;43914;57.680;11.982;2023-02-28T17:15:06;10.00;;;2.20;;
54871;SDS011;43914;57.680;11.982;2023-02-28T17:17:34;7.30;;;2.30;;
54871;SDS011;43914;57.680;11.982;2023-02-28T17:20:00;6.40;;;2.00;;
54871;SDS011;43914;57.680;11.982;2023-02-28T17:22:25;6.50;;;2.30;;
54871;SDS011;43914;57.680;11.982;2023-02-28T17:24:51;6.30;;;2.00;;
54871;SDS011;43914;57.680;11.982;2023-02-28T17:27:21;10.00;;;2.30;;
54871;SDS011;43914;57.680;11.982;2023-02-28T17:29:46;7.20;;;1.90;;
54871;SDS011;43914;57.680;11.982;2023-02-28T17:32:12;8.40;;;2.00;;